createdAt,value
2023-06-10T00:01:42.607Z,15.50
2023-06-10T00:04:09.416Z,15.60
2023-06-10T00:06:36.939Z,15.60
2023-06-10T00:09:11.838Z,15.60
2023-06-10T00:11:38.596Z,15.50
2023-06-10T00:14:05.363Z,15.40
2023-06-10T00:16:32.028Z,15.30
2023-06-10T00:19:02.100Z,15.30
2023-06-10T00:21:29.395Z,15.20
2023-06-10T00:23:56.605Z,15.10
2023-06-10T00:26:24.175Z,15.20
2023-06-10T00:28:50.978Z,15.10
2023-06-10T00:31:18.414Z,15.10
2023-06-10T00:33:45.501Z,15.10
2023-06-10T00:36:12.131Z,15.10
2023-06-10T00:38:38.805Z,15.00
2023-06-10T00:41:05.500Z,14.90
2023-06-10T00:43:32.406Z,14.90
2023-06-10T00:45:59.205Z,14.90
2023-06-10T00:48:26.296Z,14.80
2023-06-10T00:50:53.465Z,14.80
2023-06-10T00:53:21.821Z,14.70
2023-06-10T00:55:49.008Z,14.70
2023-06-10T00:58:16.696Z,14.60
2023-06-10T01:00:43.498Z,14.60
2023-06-10T01:03:10.459Z,14.60
2023-06-10T01:05:37.933Z,14.60
2023-06-10T01:08:29.189Z,14.60
2023-06-10T01:11:01.721Z,14.60
2023-06-10T01:13:30.286Z,14.60
2023-06-10T01:15:57.716Z,14.60
2023-06-10T01:18:24.596Z,14.60
2023-06-10T01:20:53.562Z,14.50
2023-06-10T01:23:20.217Z,14.50
2023-06-10T01:25:52.833Z,14.40
2023-06-10T01:28:55.048Z,14.40
2023-06-10T01:31:48.125Z,14.30
2023-06-10T01:34:21.978Z,14.40
2023-06-10T01:36:50.432Z,14.30
2023-06-10T01:39:21.566Z,14.30
2023-06-10T01:41:50.731Z,14.20
2023-06-10T01:44:21.884Z,14.20
2023-06-10T01:46:48.559Z,14.20
2023-06-10T01:49:15.499Z,14.20
2023-06-10T01:51:42.358Z,14.20
2023-06-10T01:54:09.045Z,14.10
2023-06-10T01:56:35.782Z,14.10
2023-06-10T01:59:02.453Z,14.10
2023-06-10T02:01:29.862Z,14.10
2023-06-10T02:03:56.766Z,14.00
2023-06-10T02:06:23.459Z,14.00
2023-06-10T02:08:50.171Z,13.90
2023-06-10T02:11:16.930Z,13.90
2023-06-10T02:13:43.703Z,13.80
2023-06-10T02:16:13.933Z,13.80
2023-06-10T02:18:43.957Z,13.80
2023-06-10T02:21:10.746Z,13.70
2023-06-10T02:23:37.383Z,13.70
2023-06-10T02:26:04.185Z,13.70
2023-06-10T02:28:30.885Z,13.70
2023-06-10T02:30:58.120Z,13.70
2023-06-10T02:33:25.314Z,13.60
2023-06-10T02:35:51.997Z,13.70
2023-06-10T02:38:19.153Z,13.70
2023-06-10T02:40:45.882Z,13.80
2023-06-10T02:43:12.529Z,13.70
2023-06-10T02:45:39.174Z,13.60
2023-06-10T02:48:06.196Z,13.60
2023-06-10T02:50:32.907Z,13.50
2023-06-10T02:52:59.671Z,13.50
2023-06-10T02:55:27.353Z,13.40
2023-06-10T02:57:55.149Z,13.40
2023-06-10T03:00:22.562Z,13.40
2023-06-10T03:02:50.047Z,13.30
2023-06-10T03:05:18.076Z,13.30
2023-06-10T03:07:44.655Z,13.30
2023-06-10T03:10:11.378Z,13.30
2023-06-10T03:12:37.996Z,13.30
2023-06-10T03:15:05.239Z,13.30
2023-06-10T03:17:32.067Z,13.50
2023-06-10T03:19:58.689Z,13.40
2023-06-10T03:22:25.377Z,13.40
2023-06-10T03:24:52.171Z,13.40
2023-06-10T03:27:18.805Z,13.30
2023-06-10T03:29:45.548Z,13.30
2023-06-10T03:32:12.471Z,13.40
2023-06-10T03:34:39.625Z,13.40
2023-06-10T03:37:06.785Z,13.50
2023-06-10T03:39:34.175Z,13.50
2023-06-10T03:42:00.978Z,13.50
2023-06-10T03:44:27.781Z,13.50
2023-06-10T03:46:55.806Z,13.50
2023-06-10T03:49:22.702Z,13.50
2023-06-10T03:51:49.341Z,13.50
2023-06-10T03:54:16.054Z,13.60
2023-06-10T03:56:42.801Z,13.60
2023-06-10T03:59:09.397Z,13.50
2023-06-10T04:01:38.432Z,13.50
2023-06-10T04:04:05.284Z,13.50
2023-06-10T04:06:32.650Z,13.50
2023-06-10T04:08:59.629Z,13.50
2023-06-10T04:11:26.349Z,13.50
2023-06-10T04:13:52.989Z,13.50
2023-06-10T04:16:19.692Z,13.50
2023-06-10T04:18:46.461Z,13.60
2023-06-10T04:21:13.114Z,13.60
2023-06-10T04:23:39.774Z,13.60
2023-06-10T04:26:07.108Z,13.70
2023-06-10T04:28:33.896Z,13.80
2023-06-10T04:31:00.731Z,13.80
2023-06-10T04:33:27.439Z,13.90
2023-06-10T04:35:54.073Z,13.90
2023-06-10T04:38:20.650Z,14.00
2023-06-10T04:40:47.601Z,14.10
2023-06-10T04:43:14.261Z,14.10
2023-06-10T04:45:40.888Z,14.20
2023-06-10T04:48:08.684Z,14.30
2023-06-10T04:50:35.400Z,14.40
2023-06-10T04:53:02.134Z,14.50
2023-06-10T04:55:28.749Z,14.60
2023-06-10T04:57:56.088Z,14.70
2023-06-10T05:00:23.310Z,14.70
2023-06-10T05:02:51.055Z,14.80
2023-06-10T05:05:20.764Z,14.90
2023-06-10T05:07:47.589Z,15.00
2023-06-10T05:10:14.296Z,15.10
2023-06-10T05:12:41.804Z,15.20
2023-06-10T05:15:09.490Z,15.30
2023-06-10T05:17:36.487Z,15.50
2023-06-10T05:20:04.054Z,15.60
2023-06-10T05:22:30.787Z,15.70
2023-06-10T05:24:57.893Z,15.90
2023-06-10T05:27:25.485Z,15.90
2023-06-10T05:29:52.644Z,16.00
2023-06-10T05:32:19.590Z,16.20
2023-06-10T05:34:46.435Z,16.30
2023-06-10T05:37:14.423Z,16.50
2023-06-10T05:39:41.129Z,16.80
2023-06-10T05:42:08.822Z,17.10
2023-06-10T05:44:35.944Z,17.30
2023-06-10T05:47:02.722Z,17.60
2023-06-10T05:49:29.544Z,18.00
2023-06-10T05:51:57.451Z,18.40
2023-06-10T05:54:24.070Z,18.80
2023-06-10T05:56:50.748Z,18.90
2023-06-10T05:59:17.524Z,19.20
2023-06-10T06:01:44.156Z,19.30
2023-06-10T06:04:10.815Z,19.60
2023-06-10T06:06:41.133Z,20.00
2023-06-10T06:09:08.055Z,20.30
2023-06-10T06:11:35.992Z,20.50
2023-06-10T06:14:02.679Z,20.70
2023-06-10T06:16:29.371Z,20.90
2023-06-10T06:18:56.299Z,20.90
2023-06-10T06:21:23.082Z,20.90
2023-06-10T06:23:49.807Z,20.80
2023-06-10T06:26:16.750Z,20.50
2023-06-10T06:28:43.382Z,20.80
2023-06-10T06:31:10.128Z,21.30
2023-06-10T06:33:36.768Z,21.50
2023-06-10T06:36:03.484Z,21.80
2023-06-10T06:38:30.239Z,22.00
2023-06-10T06:40:56.853Z,22.30
2023-06-10T06:43:23.499Z,22.40
2023-06-10T06:45:50.109Z,22.50
2023-06-10T06:48:16.763Z,22.90
2023-06-10T06:50:43.570Z,23.10
2023-06-10T06:53:10.303Z,23.30
2023-06-10T06:55:36.984Z,23.60
2023-06-10T06:58:04.968Z,23.60
2023-06-10T07:00:32.605Z,23.60
2023-06-10T07:02:59.533Z,23.70
2023-06-10T07:05:28.274Z,23.30
2023-06-10T07:07:56.960Z,23.20
2023-06-10T07:10:25.432Z,22.80
2023-06-10T07:12:52.738Z,22.80
2023-06-10T07:15:20.074Z,22.80
2023-06-10T07:17:46.965Z,22.90
2023-06-10T07:20:14.349Z,22.90
2023-06-10T07:22:41.288Z,23.20
2023-06-10T07:25:08.417Z,23.30
2023-06-10T07:27:37.043Z,23.30
2023-06-10T07:30:05.621Z,22.50
2023-06-10T07:32:32.280Z,22.90
2023-06-10T07:34:58.893Z,22.90
2023-06-10T07:37:25.644Z,23.30
2023-06-10T07:39:52.285Z,22.70
2023-06-10T07:42:18.889Z,22.60
2023-06-10T07:44:45.600Z,22.90
2023-06-10T07:47:12.273Z,23.20
2023-06-10T07:49:38.975Z,22.90
2023-06-10T07:52:06.501Z,22.60
2023-06-10T07:54:33.144Z,22.50
2023-06-10T07:56:59.769Z,23.00
2023-06-10T07:59:27.593Z,23.40
2023-06-10T08:01:54.442Z,23.10
2023-06-10T08:04:21.365Z,23.40
2023-06-10T08:06:48.297Z,23.70
2023-06-10T08:09:15.062Z,23.40
2023-06-10T08:11:41.737Z,23.50
2023-06-10T08:14:08.437Z,22.80
2023-06-10T08:16:35.080Z,22.90
2023-06-10T08:19:01.785Z,23.00
2023-06-10T08:21:29.555Z,23.20
2023-06-10T08:23:56.612Z,23.20
2023-06-10T08:26:23.513Z,23.30
2023-06-10T08:28:51.081Z,23.40
2023-06-10T08:31:17.801Z,23.50
2023-06-10T08:33:44.435Z,23.60
2023-06-10T08:36:11.086Z,23.40
2023-06-10T08:38:38.137Z,23.60
2023-06-10T08:41:06.901Z,23.70
2023-06-10T08:43:41.612Z,23.80
2023-06-10T08:46:11.030Z,24.00
2023-06-10T08:48:43.141Z,24.10
2023-06-10T08:51:11.774Z,24.20
2023-06-10T08:53:42.205Z,24.20
2023-06-10T08:56:10.686Z,24.40
2023-06-10T08:58:42.650Z,24.60
2023-06-10T09:01:10.543Z,24.60
2023-06-10T09:03:40.825Z,24.00
2023-06-10T09:06:08.309Z,23.90
2023-06-10T09:08:36.246Z,24.00
2023-06-10T09:11:03.117Z,23.90
2023-06-10T09:13:30.411Z,24.20
2023-06-10T09:16:01.383Z,24.50
2023-06-10T09:18:29.273Z,24.70
2023-06-10T09:20:55.880Z,25.00
2023-06-10T09:23:23.653Z,25.10
2023-06-10T09:25:58.842Z,25.50
2023-06-10T09:28:26.354Z,25.40
2023-06-10T09:31:05.285Z,25.30
2023-06-10T09:33:32.461Z,25.40
2023-06-10T09:36:02.392Z,24.90
2023-06-10T09:38:33.535Z,25.20
2023-06-10T09:41:02.124Z,25.40
2023-06-10T09:43:45.028Z,25.60
2023-06-10T09:46:19.497Z,25.80
2023-06-10T09:48:47.849Z,25.80
2023-06-10T09:51:16.254Z,25.90
2023-06-10T09:53:43.054Z,25.80
2023-06-10T09:56:11.155Z,26.10
2023-06-10T09:58:39.649Z,25.60
2023-06-10T10:01:16.474Z,25.70
2023-06-10T10:03:52.394Z,26.20
2023-06-10T10:06:21.102Z,26.50
2023-06-10T10:08:50.669Z,26.20
2023-06-10T10:11:25.096Z,26.00
2023-06-10T10:13:52.883Z,25.80
2023-06-10T10:16:39.485Z,25.60
2023-06-10T10:19:12.308Z,25.10
2023-06-10T10:21:49.476Z,25.30
2023-06-10T10:24:27.483Z,25.40
2023-06-10T10:26:59.416Z,25.80
2023-06-10T10:29:39.345Z,26.20
2023-06-10T10:32:08.292Z,26.50
2023-06-10T10:34:44.494Z,26.60
2023-06-10T10:37:11.172Z,26.40
2023-06-10T10:39:38.586Z,26.80
2023-06-10T10:42:10.326Z,27.30
2023-06-10T10:44:39.303Z,26.90
2023-06-10T10:47:10.078Z,27.10
2023-06-10T10:49:38.586Z,26.80
2023-06-10T10:52:09.030Z,26.50
2023-06-10T10:54:37.056Z,26.90
2023-06-10T10:57:33.383Z,26.90
2023-06-10T11:00:01.108Z,27.00
2023-06-10T11:02:45.671Z,27.70
2023-06-10T11:05:17.326Z,27.40
2023-06-10T11:07:58.266Z,27.60
2023-06-10T11:10:38.939Z,27.30
2023-06-10T11:13:15.976Z,27.50
2023-06-10T11:15:48.055Z,27.80
2023-06-10T11:18:21.214Z,28.10
2023-06-10T11:20:50.714Z,28.40
2023-06-10T11:23:29.737Z,28.60
2023-06-10T11:26:17.645Z,28.20
2023-06-10T11:28:47.236Z,28.40
2023-06-10T11:31:21.700Z,28.30
2023-06-10T11:33:49.630Z,28.20
2023-06-10T11:36:16.539Z,27.60
2023-06-10T11:38:44.410Z,26.90
2023-06-10T11:41:12.488Z,27.30
2023-06-10T11:43:47.322Z,27.70
2023-06-10T11:46:17.142Z,28.30
2023-06-10T11:48:53.856Z,28.00
2023-06-10T11:51:21.464Z,28.10
2023-06-10T11:53:49.885Z,28.50
2023-06-10T11:56:27.766Z,28.40
2023-06-10T11:59:06.620Z,29.30
2023-06-10T12:01:40.094Z,29.10
2023-06-10T12:04:19.588Z,29.40
2023-06-10T12:06:56.014Z,29.20
2023-06-10T12:09:28.047Z,29.50
2023-06-10T12:12:08.611Z,29.30
2023-06-10T12:15:02.254Z,28.70
2023-06-10T12:17:35.413Z,29.10
2023-06-10T12:20:08.232Z,29.00
2023-06-10T12:22:43.048Z,29.30
2023-06-10T12:25:11.273Z,28.90
2023-06-10T12:27:39.415Z,28.80
2023-06-10T12:30:07.665Z,28.40
2023-06-10T12:32:46.454Z,27.40
2023-06-10T12:35:19.368Z,28.00
2023-06-10T12:38:04.032Z,28.10
2023-06-10T12:40:33.090Z,28.50
2023-06-10T12:43:00.350Z,28.30
2023-06-10T12:45:34.722Z,28.00
2023-06-10T12:48:23.334Z,28.00
2023-06-10T12:50:55.179Z,27.90
2023-06-10T12:53:24.085Z,28.50
2023-06-10T12:55:51.913Z,28.90
2023-06-10T12:58:20.003Z,28.90
2023-06-10T13:00:46.888Z,28.70
2023-06-10T13:03:14.189Z,28.50
2023-06-10T13:05:40.974Z,28.90
2023-06-10T13:08:10.958Z,28.60
2023-06-10T13:10:38.046Z,29.30
2023-06-10T13:13:09.090Z,30.20
2023-06-10T13:15:40.265Z,30.50
2023-06-10T13:18:09.874Z,30.20
2023-06-10T13:20:37.167Z,29.90
2023-06-10T13:23:04.174Z,28.80
2023-06-10T13:25:31.082Z,28.20
2023-06-10T13:27:58.476Z,27.80
2023-06-10T13:30:25.121Z,27.30
2023-06-10T13:32:51.748Z,27.10
2023-06-10T13:35:18.398Z,27.00
2023-06-10T13:37:45.044Z,27.10
2023-06-10T13:40:12.677Z,27.70
2023-06-10T13:42:39.351Z,28.20
2023-06-10T13:45:07.070Z,28.80
2023-06-10T13:47:33.806Z,29.20
2023-06-10T13:50:00.689Z,28.90
2023-06-10T13:52:27.265Z,28.20
2023-06-10T13:54:53.813Z,28.60
2023-06-10T13:57:20.432Z,28.90
2023-06-10T13:59:47.153Z,29.20
2023-06-10T14:02:13.843Z,29.60
2023-06-10T14:04:40.558Z,29.60
2023-06-10T14:07:07.204Z,29.60
2023-06-10T14:09:33.773Z,29.40
2023-06-10T14:12:00.394Z,29.80
2023-06-10T14:14:27.102Z,29.20
2023-06-10T14:16:53.755Z,29.20
2023-06-10T14:19:20.505Z,29.40
2023-06-10T14:21:48.189Z,29.20
2023-06-10T14:24:14.899Z,28.80
2023-06-10T14:26:41.499Z,29.60
2023-06-10T14:29:09.719Z,29.70
2023-06-10T14:31:36.522Z,29.40
2023-06-10T14:34:03.200Z,29.80
2023-06-10T14:36:29.788Z,28.60
2023-06-10T14:38:57.950Z,28.90
2023-06-10T14:41:24.703Z,29.70
2023-06-10T14:43:51.506Z,30.40
2023-06-10T14:46:18.231Z,31.20
2023-06-10T14:48:44.994Z,30.60
2023-06-10T14:51:11.676Z,29.20
2023-06-10T14:53:38.353Z,28.00
2023-06-10T14:56:05.503Z,27.60
2023-06-10T14:58:32.270Z,27.70
2023-06-10T15:00:58.886Z,28.20
2023-06-10T15:03:25.554Z,28.60
2023-06-10T15:05:52.177Z,29.10
2023-06-10T15:08:18.809Z,29.30
2023-06-10T15:10:45.405Z,29.60
2023-06-10T15:13:11.991Z,29.90
2023-06-10T15:15:38.593Z,29.80
2023-06-10T15:18:05.327Z,29.60
2023-06-10T15:20:32.086Z,29.00
2023-06-10T15:22:58.715Z,28.40
2023-06-10T15:25:31.328Z,27.80
2023-06-10T15:27:59.181Z,27.40
2023-06-10T15:30:26.070Z,27.00
2023-06-10T15:32:53.126Z,27.00
2023-06-10T15:35:20.114Z,28.40
2023-06-10T15:37:46.983Z,29.70
2023-06-10T15:40:13.577Z,32.00
2023-06-10T15:42:40.608Z,32.10
2023-06-10T15:45:08.032Z,33.10
2023-06-10T15:47:34.909Z,33.20
2023-06-10T15:50:01.673Z,32.90
2023-06-10T15:52:28.284Z,32.70
2023-06-10T15:54:54.882Z,33.50
2023-06-10T15:57:23.454Z,34.20
2023-06-10T15:59:54.532Z,32.20
2023-06-10T16:02:21.431Z,32.50
2023-06-10T16:04:48.657Z,30.70
2023-06-10T16:07:15.294Z,30.60
2023-06-10T16:09:42.009Z,30.80
2023-06-10T16:12:08.953Z,32.50
2023-06-10T16:14:35.737Z,33.40
2023-06-10T16:17:02.559Z,33.60
2023-06-10T16:19:29.214Z,34.40
2023-06-10T16:21:56.239Z,33.40
2023-06-10T16:24:23.294Z,33.50
2023-06-10T16:26:50.141Z,34.00
2023-06-10T16:29:17.379Z,35.50
2023-06-10T16:31:44.074Z,34.20
2023-06-10T16:34:10.944Z,31.90
2023-06-10T16:36:37.651Z,33.60
2023-06-10T16:39:04.351Z,32.50
2023-06-10T16:41:31.047Z,32.50
2023-06-10T16:43:58.596Z,32.40
2023-06-10T16:46:26.445Z,30.80
2023-06-10T16:48:53.065Z,30.80
2023-06-10T16:51:19.664Z,32.50
2023-06-10T16:53:46.359Z,33.30
2023-06-10T16:58:40.355Z,33.90
2023-06-10T17:01:09.376Z,31.80
2023-06-10T17:03:36.304Z,30.20
2023-06-10T17:06:03.060Z,29.70
2023-06-10T17:08:29.994Z,28.60
2023-06-10T17:10:56.798Z,28.30
2023-06-10T17:13:23.421Z,28.90
2023-06-10T17:15:50.317Z,29.30
2023-06-10T17:18:17.174Z,28.90
2023-06-10T17:20:44.036Z,29.60
2023-06-10T17:23:11.324Z,29.60
2023-06-10T17:25:37.992Z,30.10
2023-06-10T17:28:05.103Z,30.10
2023-06-10T17:30:31.818Z,29.90
2023-06-10T17:32:58.508Z,30.40
2023-06-10T17:35:25.657Z,30.40
2023-06-10T17:37:52.393Z,28.90
2023-06-10T17:40:19.076Z,28.20
2023-06-10T17:42:45.813Z,29.30
2023-06-10T17:45:12.665Z,29.90
2023-06-10T17:47:39.579Z,28.60
2023-06-10T17:50:06.600Z,27.70
2023-06-10T17:52:33.241Z,27.60
2023-06-10T17:55:00.864Z,27.60
2023-06-10T17:57:29.058Z,27.40
2023-06-10T17:59:56.222Z,27.10
2023-06-10T18:02:23.090Z,26.70
2023-06-10T18:04:49.783Z,26.50
2023-06-10T18:07:16.562Z,26.30
2023-06-10T18:09:43.240Z,26.00
2023-06-10T18:12:11.084Z,25.90
2023-06-10T18:14:37.801Z,25.80
2023-06-10T18:17:04.685Z,25.60
2023-06-10T18:19:31.285Z,25.60
2023-06-10T18:21:58.082Z,25.40
2023-06-10T18:24:24.775Z,25.40
2023-06-10T18:29:18.655Z,25.30
2023-06-10T18:31:45.350Z,25.20
2023-06-10T18:34:12.066Z,25.10
2023-06-10T18:36:38.694Z,25.00
2023-06-10T18:39:05.335Z,24.90
2023-06-10T18:41:32.061Z,24.90
2023-06-10T18:44:00.919Z,24.80
2023-06-10T18:46:27.952Z,24.70
2023-06-10T18:48:54.568Z,24.50
2023-06-10T18:51:21.961Z,24.30
2023-06-10T18:53:48.514Z,24.30
2023-06-10T18:56:15.237Z,24.20
2023-06-10T18:58:44.422Z,24.10
2023-06-10T19:01:11.394Z,24.20
2023-06-10T19:03:38.136Z,24.30
2023-06-10T19:06:06.444Z,24.20
2023-06-10T19:08:33.248Z,24.20
2023-06-10T19:10:59.996Z,24.10
2023-06-10T19:13:28.473Z,24.00
2023-06-10T19:15:55.374Z,23.80
2023-06-10T19:18:21.982Z,23.80
2023-06-10T19:20:48.754Z,23.70
2023-06-10T19:23:15.627Z,23.70
2023-06-10T19:25:42.396Z,23.60
2023-06-10T19:28:10.109Z,23.50
2023-06-10T19:30:37.123Z,23.40
2023-06-10T19:33:03.990Z,23.50
2023-06-10T19:35:30.772Z,23.50
2023-06-10T19:37:57.552Z,23.40
2023-06-10T19:40:24.248Z,23.50
2023-06-10T19:42:51.947Z,23.50
2023-06-10T19:45:18.951Z,23.50
2023-06-10T19:47:45.793Z,23.50
2023-06-10T19:50:12.640Z,23.30
2023-06-10T19:52:39.314Z,23.20
2023-06-10T19:55:06.532Z,23.10
2023-06-10T19:57:33.198Z,23.00
2023-06-10T19:59:59.802Z,23.10
2023-06-10T20:02:26.561Z,23.00
2023-06-10T20:04:53.372Z,23.00
2023-06-10T20:07:19.967Z,22.90
2023-06-10T20:09:46.615Z,22.80
2023-06-10T20:12:13.276Z,22.70
2023-06-10T20:14:39.957Z,22.60
2023-06-10T20:17:07.261Z,22.60
2023-06-10T20:19:33.944Z,22.60
2023-06-10T20:22:04.770Z,22.70
2023-06-10T20:24:32.396Z,22.50
2023-06-10T20:26:59.397Z,22.40
2023-06-10T20:29:28.859Z,22.40
2023-06-10T20:31:55.643Z,22.40
2023-06-10T20:34:22.695Z,22.50
2023-06-10T20:36:50.681Z,22.40
2023-06-10T20:39:17.496Z,22.30
2023-06-10T20:41:44.128Z,22.30
2023-06-10T20:44:12.505Z,22.20
2023-06-10T20:46:39.231Z,22.00
2023-06-10T20:49:05.970Z,22.00
2023-06-10T20:51:33.746Z,21.90
2023-06-10T20:54:01.317Z,21.90
2023-06-10T20:56:28.046Z,22.00
2023-06-10T20:58:54.687Z,22.00
2023-06-10T21:01:21.457Z,21.90
2023-06-10T21:03:48.260Z,21.80
2023-06-10T21:06:14.926Z,21.70
2023-06-10T21:08:42.614Z,21.70
2023-06-10T21:11:09.257Z,21.70
2023-06-10T21:13:35.999Z,21.70
2023-06-10T21:16:03.645Z,21.70
2023-06-10T21:18:32.451Z,21.60
2023-06-10T21:20:59.191Z,21.60
2023-06-10T21:23:26.334Z,21.60
2023-06-10T21:25:52.994Z,21.50
2023-06-10T21:28:19.614Z,21.50
2023-06-10T21:30:46.290Z,21.40
2023-06-10T21:33:12.991Z,21.30
2023-06-10T21:35:39.891Z,21.20
2023-06-10T21:38:06.608Z,21.10
2023-06-10T21:40:33.273Z,21.00
2023-06-10T21:42:59.922Z,20.90
2023-06-10T21:45:26.549Z,21.10
2023-06-10T21:47:53.221Z,21.00
2023-06-10T21:50:19.967Z,21.10
2023-06-10T21:52:46.636Z,21.00
2023-06-10T21:55:13.735Z,20.90
2023-06-10T21:57:40.678Z,20.90
2023-06-10T22:00:12.005Z,20.90
2023-06-10T22:02:40.019Z,20.90
2023-06-10T22:05:07.921Z,20.90
2023-06-10T22:07:35.244Z,20.80
2023-06-10T22:10:04.301Z,20.80
2023-06-10T22:12:31.416Z,20.70
2023-06-10T22:14:58.010Z,20.70
2023-06-10T22:17:24.959Z,20.70
2023-06-10T22:19:51.744Z,20.70
2023-06-10T22:22:18.694Z,20.50
2023-06-10T22:24:50.637Z,20.50
2023-06-10T22:27:17.495Z,20.40
2023-06-10T22:29:44.076Z,20.40
2023-06-10T22:32:11.648Z,20.40
2023-06-10T22:34:38.408Z,20.30
2023-06-10T22:37:06.263Z,20.20
2023-06-10T22:39:33.380Z,20.10
2023-06-10T22:42:00.186Z,19.90
2023-06-10T22:44:26.819Z,19.80
2023-06-10T22:46:53.497Z,19.60
2023-06-10T22:49:20.603Z,19.50
2023-06-10T22:51:47.447Z,19.40
2023-06-10T22:54:15.222Z,19.40
2023-06-10T22:56:42.358Z,19.30
2023-06-10T22:59:09.008Z,19.30
2023-06-10T23:01:35.875Z,19.20
2023-06-10T23:04:02.988Z,19.10
2023-06-10T23:06:29.639Z,19.10
2023-06-10T23:08:56.294Z,19.10
2023-06-10T23:11:22.912Z,19.20
2023-06-10T23:13:49.553Z,19.30
2023-06-10T23:16:16.389Z,19.40
2023-06-10T23:18:43.028Z,19.40
2023-06-10T23:21:10.406Z,19.40
2023-06-10T23:23:38.149Z,19.30
2023-06-10T23:26:05.285Z,19.30
2023-06-10T23:28:32.072Z,19.20
2023-06-10T23:30:58.760Z,19.20
2023-06-10T23:33:25.566Z,19.10
2023-06-10T23:35:52.488Z,19.10
2023-06-10T23:38:19.312Z,19.10
2023-06-10T23:40:46.132Z,19.10
2023-06-10T23:43:13.909Z,19.00
2023-06-10T23:45:40.667Z,19.00
2023-06-10T23:48:07.474Z,19.00
2023-06-10T23:50:37.922Z,18.90
2023-06-10T23:53:06.305Z,18.90
2023-06-10T23:55:34.991Z,18.90
2023-06-10T23:58:03.131Z,18.80
